createdAt,value
2019-03-01T00:00:30.721Z,57.10
2019-03-01T00:03:00.496Z,59.20
2019-03-01T00:06:07.145Z,59.60
2019-03-01T00:09:17.990Z,63.00
2019-03-01T00:12:01.885Z,62.50
2019-03-01T00:15:04.027Z,62.10
2019-03-01T00:18:00.729Z,63.20
2019-03-01T00:20:58.738Z,64.10
2019-03-01T00:24:27.234Z,64.80
2019-03-01T00:27:25.807Z,65.70
2019-03-01T00:30:50.569Z,68.30
2019-03-01T00:34:16.161Z,68.70
2019-03-01T00:37:38.750Z,69.20
2019-03-01T00:40:20.570Z,70.90
2019-03-01T00:43:25.920Z,71.40
2019-03-01T00:45:55.666Z,73.20
2019-03-01T00:48:25.467Z,75.00
2019-03-01T00:50:55.202Z,75.60
2019-03-01T00:53:24.897Z,77.10
2019-03-01T00:55:54.581Z,79.10
2019-03-01T00:58:24.316Z,80.60
2019-03-01T01:00:54.142Z,85.30
2019-03-01T01:03:23.937Z,87.80
2019-03-01T01:05:53.706Z,86.70
2019-03-01T01:08:23.397Z,88.10
2019-03-01T01:10:53.195Z,89.30
2019-03-01T01:13:22.932Z,90.80
2019-03-01T01:15:52.722Z,91.90
2019-03-01T01:18:22.392Z,91.20
2019-03-01T01:20:52.189Z,91.90
2019-03-01T01:23:21.947Z,92.30
2019-03-01T01:25:51.717Z,92.80
2019-03-01T01:28:21.458Z,93.70
2019-03-01T01:30:51.251Z,96.20
2019-03-01T01:33:21.103Z,96.00
2019-03-01T01:35:50.911Z,95.30
2019-03-01T01:38:20.761Z,96.30
2019-03-01T01:40:50.481Z,97.30
2019-03-01T01:43:20.240Z,96.30
2019-03-01T01:45:51.734Z,97.10
2019-03-01T01:48:21.495Z,98.10
2019-03-01T01:50:51.340Z,98.40
2019-03-01T01:53:21.111Z,99.00
2019-03-01T01:55:50.851Z,99.30
2019-03-01T01:58:20.606Z,99.90
2019-03-01T02:00:50.403Z,98.50
2019-03-01T02:03:20.053Z,99.30
2019-03-01T02:05:49.836Z,96.60
2019-03-01T02:08:19.710Z,95.00
2019-03-01T02:10:49.527Z,94.70
2019-03-01T02:13:19.316Z,94.40
2019-03-01T02:15:49.089Z,94.60
2019-03-01T02:18:19.133Z,95.10
2019-03-01T02:20:48.924Z,96.20
2019-03-01T02:23:18.639Z,95.10
2019-03-01T02:25:48.405Z,97.50
2019-03-01T02:28:18.158Z,96.10
2019-03-01T02:30:48.325Z,96.90
2019-03-01T02:33:18.078Z,97.50
2019-03-01T02:35:47.865Z,97.00
2019-03-01T02:38:19.642Z,96.50
2019-03-01T02:40:49.413Z,96.50
2019-03-01T02:43:19.087Z,96.00
2019-03-01T02:45:48.830Z,95.30
2019-03-01T02:48:18.648Z,94.90
2019-03-01T02:50:48.285Z,94.50
2019-03-01T02:53:18.049Z,94.40
2019-03-01T02:55:47.766Z,94.10
2019-03-01T02:58:17.509Z,93.80
2019-03-01T03:00:47.279Z,93.70
2019-03-01T03:03:16.955Z,93.90
2019-03-01T03:06:05.586Z,94.00
2019-03-01T03:08:35.315Z,94.00
2019-03-01T03:11:05.094Z,94.30
2019-03-01T03:13:34.857Z,94.30
2019-03-01T03:16:04.623Z,95.10
2019-03-01T03:18:34.334Z,95.20
2019-03-01T03:21:04.014Z,95.40
2019-03-01T03:23:33.772Z,95.50
2019-03-01T03:26:03.520Z,95.70
2019-03-01T03:28:33.217Z,96.10
2019-03-01T03:31:02.870Z,96.00
2019-03-01T03:33:32.629Z,96.50
2019-03-01T03:36:02.488Z,96.40
2019-03-01T03:38:32.253Z,96.40
2019-03-01T03:41:01.921Z,96.30
2019-03-01T03:43:31.582Z,96.40
2019-03-01T03:46:01.239Z,96.30
2019-03-01T03:48:31.032Z,96.70
2019-03-01T03:51:00.839Z,96.70
2019-03-01T03:53:30.556Z,96.70
2019-03-01T03:56:00.265Z,96.70
2019-03-01T03:58:29.957Z,97.10
2019-03-01T04:00:59.841Z,97.20
2019-03-01T04:03:29.605Z,97.20
2019-03-01T04:05:59.413Z,97.40
2019-03-01T04:08:29.040Z,97.20
2019-03-01T04:10:58.752Z,97.30
2019-03-01T04:13:29.786Z,98.80
2019-03-01T04:15:59.620Z,97.80
2019-03-01T04:18:29.471Z,97.50
2019-03-01T04:20:59.262Z,97.10
2019-03-01T04:23:29.081Z,97.50
2019-03-01T04:25:58.825Z,97.20
2019-03-01T04:28:28.600Z,97.40
2019-03-01T04:30:58.402Z,97.40
2019-03-01T04:33:28.186Z,97.90
2019-03-01T04:35:57.940Z,97.80
2019-03-01T04:38:27.636Z,97.70
2019-03-01T04:40:57.465Z,97.60
2019-03-01T04:43:27.273Z,97.90
2019-03-01T04:45:56.973Z,98.20
2019-03-01T04:48:26.948Z,98.50
2019-03-01T04:50:56.694Z,98.80
2019-03-01T04:53:26.422Z,99.40
2019-03-01T04:55:56.224Z,99.40
2019-03-01T04:58:25.940Z,99.90
2019-03-01T05:00:55.586Z,99.90
2019-03-01T05:03:25.413Z,99.90
2019-03-01T05:05:55.197Z,99.90
2019-03-01T05:08:25.518Z,99.90
2019-03-01T05:10:55.315Z,99.90
2019-03-01T05:13:25.100Z,99.90
2019-03-01T05:15:54.857Z,99.90
2019-03-01T05:18:24.590Z,99.90
2019-03-01T05:20:54.362Z,99.90
2019-03-01T05:23:24.152Z,99.90
2019-03-01T05:25:54.117Z,99.90
2019-03-01T05:28:23.806Z,99.90
2019-03-01T05:30:53.479Z,99.90
2019-03-01T05:33:23.247Z,99.90
2019-03-01T05:35:52.933Z,99.90
2019-03-01T05:38:22.775Z,99.90
2019-03-01T05:40:52.554Z,99.90
2019-03-01T05:43:22.321Z,99.90
2019-03-01T05:45:52.094Z,99.90
2019-03-01T05:48:21.857Z,99.90
2019-03-01T05:50:51.833Z,99.90
2019-03-01T05:53:21.577Z,99.90
2019-03-01T05:55:51.297Z,99.90
2019-03-01T05:58:32.553Z,99.90
2019-03-01T06:01:12.290Z,99.90
2019-03-01T06:04:15.377Z,99.90
2019-03-01T06:07:24.165Z,99.90
2019-03-01T06:10:21.510Z,99.90
2019-03-01T06:13:25.490Z,99.90
2019-03-01T06:16:24.453Z,99.90
2019-03-01T06:19:37.650Z,99.90
2019-03-01T06:22:46.695Z,99.90
2019-03-01T06:25:50.838Z,99.90
2019-03-01T06:28:48.819Z,99.90
2019-03-01T06:31:53.608Z,99.90
2019-03-01T06:34:36.995Z,99.90
2019-03-01T06:37:59.770Z,99.90
2019-03-01T06:41:29.765Z,99.90
2019-03-01T06:44:44.649Z,99.90
2019-03-01T06:47:51.780Z,99.90
2019-03-01T06:50:46.250Z,99.90
2019-03-01T06:53:15.971Z,99.90
2019-03-01T06:55:53.887Z,99.90
2019-03-01T06:58:46.919Z,99.90
2019-03-01T07:01:18.965Z,99.90
2019-03-01T07:03:56.543Z,99.90
2019-03-01T07:06:26.240Z,99.90
2019-03-01T07:08:56.031Z,99.90
2019-03-01T07:11:25.770Z,99.90
2019-03-01T07:13:55.468Z,99.90
2019-03-01T07:16:27.822Z,99.90
2019-03-01T07:18:57.581Z,99.90
2019-03-01T07:21:27.376Z,99.90
2019-03-01T07:23:57.147Z,99.90
2019-03-01T07:26:26.845Z,99.90
2019-03-01T07:28:56.676Z,99.90
2019-03-01T07:31:26.460Z,99.90
2019-03-01T07:33:56.449Z,99.90
2019-03-01T07:36:26.141Z,99.90
2019-03-01T07:38:55.789Z,99.90
2019-03-01T07:41:25.538Z,99.90
2019-03-01T07:43:55.337Z,99.90
2019-03-01T07:46:25.983Z,99.90
2019-03-01T07:48:55.725Z,99.90
2019-03-01T07:51:26.949Z,99.90
2019-03-01T07:53:57.566Z,99.90
2019-03-01T07:56:27.262Z,99.90
2019-03-01T07:58:59.995Z,99.90
2019-03-01T08:01:29.934Z,99.90
2019-03-01T08:03:59.845Z,99.90
2019-03-01T08:06:30.083Z,99.90
2019-03-01T08:08:59.875Z,99.90
2019-03-01T08:11:31.731Z,99.90
2019-03-01T08:14:01.093Z,99.90
2019-03-01T08:16:30.876Z,99.90
2019-03-01T08:19:00.595Z,99.90
2019-03-01T08:21:30.585Z,99.90
2019-03-01T08:24:00.325Z,99.90
2019-03-01T08:26:30.788Z,99.90
2019-03-01T08:29:01.979Z,99.90
2019-03-01T08:31:31.767Z,99.90
2019-03-01T08:34:01.456Z,99.90
2019-03-01T08:36:31.273Z,99.90
2019-03-01T08:39:04.666Z,99.90
2019-03-01T08:41:32.437Z,99.90
2019-03-01T08:44:02.265Z,99.90
2019-03-01T08:46:31.947Z,99.90
2019-03-01T08:49:01.720Z,99.90
2019-03-01T08:51:31.496Z,99.90
2019-03-01T08:54:01.266Z,99.90
2019-03-01T08:56:31.019Z,99.90
2019-03-01T08:59:00.989Z,99.90
2019-03-01T09:01:31.712Z,99.90
2019-03-01T09:04:04.706Z,99.90
2019-03-01T09:06:34.496Z,99.90
2019-03-01T09:09:08.510Z,99.90
2019-03-01T09:11:37.969Z,99.90
2019-03-01T09:14:07.678Z,99.50
2019-03-01T09:16:37.436Z,99.40
2019-03-01T09:19:07.265Z,99.40
2019-03-01T09:21:36.917Z,99.30
2019-03-01T09:24:06.653Z,99.30
2019-03-01T09:26:36.387Z,98.70
2019-03-01T09:29:06.195Z,98.00
2019-03-01T09:31:35.844Z,97.40
2019-03-01T09:34:06.248Z,96.90
2019-03-01T09:36:39.946Z,95.40
2019-03-01T09:39:14.417Z,94.30
2019-03-01T09:41:45.045Z,94.30
2019-03-01T09:44:14.959Z,95.20
2019-03-01T09:46:44.783Z,96.00
2019-03-01T09:49:14.481Z,96.00
2019-03-01T09:51:49.201Z,95.90
2019-03-01T09:54:15.850Z,95.90
2019-03-01T09:56:45.633Z,95.60
2019-03-01T09:59:15.443Z,95.80
2019-03-01T10:01:45.211Z,96.30
2019-03-01T10:04:14.951Z,96.60
2019-03-01T10:06:44.774Z,96.60
2019-03-01T10:09:14.489Z,96.80
2019-03-01T10:11:44.243Z,96.70
2019-03-01T10:14:13.992Z,96.60
2019-03-01T10:16:43.806Z,97.00
2019-03-01T10:19:13.600Z,97.00
2019-03-01T10:21:43.468Z,96.40
2019-03-01T10:24:13.171Z,96.60
2019-03-01T10:26:42.880Z,95.90
2019-03-01T10:29:12.682Z,95.30
2019-03-01T10:31:43.638Z,94.10
2019-03-01T10:34:13.426Z,93.00
2019-03-01T10:36:43.210Z,91.20
2019-03-01T10:39:15.632Z,90.60
2019-03-01T10:41:45.285Z,88.70
2019-03-01T10:44:15.118Z,86.20
2019-03-01T10:46:44.845Z,83.50
2019-03-01T10:49:14.624Z,81.80
2019-03-01T10:51:44.442Z,81.00
2019-03-01T10:54:14.198Z,80.00
2019-03-01T10:56:44.000Z,79.40
2019-03-01T10:59:13.719Z,80.80
2019-03-01T11:01:43.541Z,82.30
2019-03-01T11:04:13.221Z,85.20
2019-03-01T11:06:42.977Z,84.40
2019-03-01T11:09:12.667Z,84.90
2019-03-01T11:11:42.437Z,84.70
2019-03-01T11:14:12.213Z,86.40
2019-03-01T11:16:42.022Z,84.30
2019-03-01T11:19:11.830Z,82.80
2019-03-01T11:21:41.505Z,81.70
2019-03-01T11:24:11.200Z,82.00
2019-03-01T11:26:41.409Z,81.50
2019-03-01T11:29:11.157Z,79.90
2019-03-01T11:31:40.909Z,79.00
2019-03-01T11:34:10.700Z,80.10
2019-03-01T11:36:40.388Z,80.60
2019-03-01T11:39:10.853Z,80.10
2019-03-01T11:41:40.641Z,79.70
2019-03-01T11:44:10.269Z,78.90
2019-03-01T11:46:43.214Z,77.70
2019-03-01T11:49:12.945Z,76.70
2019-03-01T11:51:42.876Z,76.00
2019-03-01T11:54:12.681Z,75.60
2019-03-01T11:56:42.556Z,74.40
2019-03-01T11:59:12.371Z,72.80
2019-03-01T12:01:42.157Z,73.10
2019-03-01T12:04:13.555Z,74.30
2019-03-01T12:06:43.289Z,77.50
2019-03-01T12:09:13.060Z,79.30
2019-03-01T12:11:42.855Z,80.10
2019-03-01T12:14:12.635Z,79.80
2019-03-01T12:16:42.256Z,79.70
2019-03-01T12:19:12.029Z,78.70
2019-03-01T12:21:41.841Z,78.90
2019-03-01T12:24:11.645Z,79.20
2019-03-01T12:26:41.337Z,80.80
2019-03-01T12:29:11.009Z,77.60
2019-03-01T12:31:40.726Z,74.80
2019-03-01T12:34:12.484Z,76.20
2019-03-01T12:36:42.155Z,76.10
2019-03-01T12:39:11.949Z,77.80
2019-03-01T12:41:41.722Z,77.50
2019-03-01T12:44:11.557Z,77.50
2019-03-01T12:46:41.276Z,76.90
2019-03-01T12:49:11.065Z,78.70
2019-03-01T12:51:40.803Z,78.50
2019-03-01T12:54:11.945Z,76.40
2019-03-01T12:56:41.706Z,77.10
2019-03-01T12:59:11.476Z,75.30
2019-03-01T13:01:41.820Z,76.40
2019-03-01T13:04:12.015Z,77.70
2019-03-01T13:06:41.847Z,78.20
2019-03-01T13:09:16.509Z,76.90
2019-03-01T13:11:51.340Z,77.00
2019-03-01T13:14:24.713Z,76.30
2019-03-01T13:16:58.571Z,74.70
2019-03-01T13:19:26.907Z,76.60
2019-03-01T13:21:56.834Z,77.50
2019-03-01T13:24:26.574Z,79.00
2019-03-01T13:26:56.382Z,80.10
2019-03-01T13:29:26.008Z,83.90
2019-03-01T13:31:58.753Z,86.70
2019-03-01T13:34:28.647Z,86.40
2019-03-01T13:36:58.441Z,88.90
2019-03-01T13:39:28.330Z,88.50
2019-03-01T13:41:58.145Z,89.90
2019-03-01T13:44:27.952Z,90.10
2019-03-01T13:46:57.802Z,90.10
2019-03-01T13:49:30.304Z,90.30
2019-03-01T13:51:59.229Z,90.70
2019-03-01T13:54:29.039Z,90.20
2019-03-01T13:56:58.781Z,91.10
2019-03-01T13:59:28.526Z,91.20
2019-03-01T14:01:58.293Z,90.20
2019-03-01T14:04:28.063Z,90.10
2019-03-01T14:06:57.851Z,89.90
2019-03-01T14:09:28.082Z,90.30
2019-03-01T14:11:59.375Z,90.00
2019-03-01T14:14:29.855Z,90.00
2019-03-01T14:17:00.131Z,90.10
2019-03-01T14:19:29.821Z,90.30
2019-03-01T14:21:59.495Z,90.30
2019-03-01T14:24:29.585Z,90.00
2019-03-01T14:27:00.214Z,89.80
2019-03-01T14:29:30.035Z,90.10
2019-03-01T14:31:59.800Z,90.60
2019-03-01T14:34:29.428Z,91.10
2019-03-01T14:37:01.395Z,91.30
2019-03-01T14:39:31.140Z,91.60
2019-03-01T14:42:00.796Z,92.00
2019-03-01T14:44:30.747Z,92.20
2019-03-01T14:47:01.892Z,92.20
2019-03-01T14:49:31.591Z,92.40
2019-03-01T14:52:01.321Z,92.50
2019-03-01T14:54:31.082Z,93.60
2019-03-01T14:57:17.668Z,94.40
2019-03-01T14:59:53.271Z,95.40
2019-03-01T15:02:39.802Z,96.10
2019-03-01T15:05:17.096Z,97.20
2019-03-01T15:07:39.760Z,98.10
2019-03-01T15:10:10.989Z,99.30
2019-03-01T15:12:40.799Z,99.90
2019-03-01T15:15:11.830Z,99.90
2019-03-01T15:17:44.024Z,99.90
2019-03-01T15:20:17.184Z,99.90
2019-03-01T15:22:48.424Z,99.90
2019-03-01T15:25:16.937Z,99.90
2019-03-01T15:27:46.726Z,99.90
2019-03-01T15:30:16.529Z,99.90
2019-03-01T15:32:47.182Z,99.90
2019-03-01T15:35:16.930Z,99.90
2019-03-01T15:37:46.663Z,99.90
2019-03-01T15:40:16.503Z,99.90
2019-03-01T15:42:46.302Z,99.90
2019-03-01T15:45:16.068Z,99.90
2019-03-01T15:47:45.820Z,99.90
2019-03-01T15:50:16.897Z,99.90
2019-03-01T15:52:49.834Z,99.90
2019-03-01T15:55:18.161Z,99.90
2019-03-01T15:57:48.056Z,99.90
2019-03-01T16:00:18.097Z,99.90
2019-03-01T16:02:50.013Z,99.90
2019-03-01T16:05:59.656Z,99.90
2019-03-01T16:08:29.509Z,99.90
2019-03-01T16:10:59.334Z,99.90
2019-03-01T16:13:29.235Z,99.90
2019-03-01T16:15:58.987Z,99.90
2019-03-01T16:18:29.742Z,99.90
2019-03-01T16:21:01.939Z,99.90
2019-03-01T16:23:31.063Z,99.90
2019-03-01T16:26:00.940Z,99.90
2019-03-01T16:28:31.381Z,99.90
2019-03-01T16:31:03.722Z,99.90
2019-03-01T16:33:36.502Z,99.90
2019-03-01T16:36:11.353Z,99.90
2019-03-01T16:38:41.397Z,99.90
2019-03-01T16:41:12.431Z,99.90
2019-03-01T16:43:43.525Z,99.90
2019-03-01T16:46:13.372Z,99.90
2019-03-01T16:48:43.101Z,99.90
2019-03-01T16:51:15.471Z,99.90
2019-03-01T16:53:44.300Z,99.90
2019-03-01T16:56:14.101Z,99.90
2019-03-01T16:58:46.129Z,99.90
2019-03-01T17:01:15.841Z,99.90
2019-03-01T17:03:45.659Z,99.90
2019-03-01T17:06:15.362Z,99.90
2019-03-01T17:08:46.369Z,99.90
2019-03-01T17:11:16.076Z,99.90
2019-03-01T17:13:45.880Z,99.90
2019-03-01T17:16:15.549Z,99.90
2019-03-01T17:18:47.749Z,99.90
2019-03-01T17:21:16.755Z,99.90
2019-03-01T17:23:46.437Z,99.90
2019-03-01T17:26:16.164Z,99.90
2019-03-01T17:28:45.864Z,99.90
2019-03-01T17:31:15.637Z,99.90
2019-03-01T17:33:48.802Z,99.90
2019-03-01T17:36:17.807Z,99.90
2019-03-01T17:38:48.113Z,99.90
2019-03-01T17:41:17.848Z,99.90
2019-03-01T17:43:47.591Z,99.90
2019-03-01T17:46:17.326Z,99.90
2019-03-01T17:48:47.090Z,99.90
2019-03-01T17:51:18.215Z,99.90
2019-03-01T17:53:48.134Z,99.90
2019-03-01T17:56:18.741Z,99.90
2019-03-01T17:58:49.250Z,99.90
2019-03-01T18:01:20.245Z,99.90
2019-03-01T18:03:50.103Z,99.90
2019-03-01T18:06:19.825Z,99.90
2019-03-01T18:08:49.606Z,99.90
2019-03-01T18:11:19.346Z,99.90
2019-03-01T18:13:50.936Z,99.90
2019-03-01T18:16:22.110Z,99.90
2019-03-01T18:18:52.990Z,99.90
2019-03-01T18:21:22.743Z,99.90
2019-03-01T18:23:52.458Z,99.90
2019-03-01T18:26:23.008Z,99.90
2019-03-01T18:28:53.012Z,99.90
2019-03-01T18:31:22.746Z,99.90
2019-03-01T18:33:53.717Z,99.90
2019-03-01T18:36:23.978Z,99.90
2019-03-01T18:38:55.845Z,99.90
2019-03-01T18:41:27.457Z,99.90
2019-03-01T18:43:57.064Z,99.90
2019-03-01T18:46:26.698Z,99.90
2019-03-01T18:48:56.417Z,99.90
2019-03-01T18:51:26.142Z,99.90
2019-03-01T18:53:55.863Z,99.90
2019-03-01T18:56:28.728Z,99.90
2019-03-01T18:58:57.096Z,99.90
2019-03-01T19:01:26.820Z,99.90
2019-03-01T19:03:56.637Z,99.90
2019-03-01T19:06:26.389Z,99.90
2019-03-01T19:08:56.178Z,99.90
2019-03-01T19:11:25.881Z,99.90
2019-03-01T19:13:58.574Z,99.90
2019-03-01T19:16:29.443Z,99.90
2019-03-01T19:18:59.122Z,99.90
2019-03-01T19:21:28.854Z,99.90
2019-03-01T19:23:58.641Z,99.90
2019-03-01T19:26:28.418Z,99.90
2019-03-01T19:28:58.910Z,99.90
2019-03-01T19:31:30.614Z,99.90
2019-03-01T19:34:00.413Z,99.90
2019-03-01T19:36:30.054Z,99.90
2019-03-01T19:39:01.553Z,99.90
2019-03-01T19:41:31.438Z,99.90
2019-03-01T19:44:03.501Z,99.90
2019-03-01T19:46:33.259Z,99.90
2019-03-01T19:49:04.607Z,99.90
2019-03-01T19:51:37.441Z,99.90
2019-03-01T19:54:06.002Z,99.90
2019-03-01T19:56:35.785Z,99.90
2019-03-01T19:59:05.659Z,99.90
2019-03-01T20:01:35.368Z,99.90
2019-03-01T20:04:05.179Z,99.90
2019-03-01T20:06:34.891Z,99.90
2019-03-01T20:09:05.493Z,99.90
2019-03-01T20:11:37.192Z,99.90
2019-03-01T20:14:06.920Z,99.90
2019-03-01T20:16:36.561Z,99.90
2019-03-01T20:19:06.641Z,99.90
2019-03-01T20:21:36.390Z,99.90
2019-03-01T20:24:06.909Z,99.90
2019-03-01T20:26:36.772Z,99.90
2019-03-01T20:29:07.673Z,99.90
2019-03-01T20:31:40.486Z,99.90
2019-03-01T20:34:09.729Z,99.90
2019-03-01T20:36:39.405Z,99.90
2019-03-01T20:39:11.761Z,99.90
2019-03-01T20:41:46.155Z,99.90
2019-03-01T20:44:14.791Z,99.90
2019-03-01T20:46:43.976Z,99.90
2019-03-01T20:49:14.514Z,99.90
2019-03-01T20:51:44.305Z,99.90
2019-03-01T20:54:14.070Z,99.90
2019-03-01T20:56:43.907Z,99.90
2019-03-01T20:59:15.386Z,99.90
2019-03-01T21:01:45.056Z,99.90
2019-03-01T21:04:16.138Z,99.90
2019-03-01T21:06:48.133Z,99.90
2019-03-01T21:09:17.809Z,99.90
2019-03-01T21:11:52.365Z,99.90
2019-03-01T21:14:23.849Z,99.90
2019-03-01T21:16:53.528Z,99.90
2019-03-01T21:19:23.229Z,99.90
2019-03-01T21:21:52.976Z,99.90
2019-03-01T21:24:22.993Z,99.90
2019-03-01T21:26:54.169Z,99.90
2019-03-01T21:29:23.941Z,99.90
2019-03-01T21:31:56.184Z,99.90
2019-03-01T21:34:25.959Z,99.90
2019-03-01T21:36:59.145Z,99.90
2019-03-01T21:39:27.105Z,99.90
2019-03-01T21:41:56.880Z,99.90
2019-03-01T21:44:26.596Z,99.90
2019-03-01T21:46:56.253Z,99.90
2019-03-01T21:49:28.273Z,99.90
2019-03-01T21:51:58.110Z,99.90
2019-03-01T21:54:27.873Z,99.90
2019-03-01T21:56:57.630Z,99.90
2019-03-01T21:59:27.382Z,99.90
2019-03-01T22:01:57.155Z,99.90
2019-03-01T22:04:28.741Z,99.90
2019-03-01T22:07:01.899Z,99.90
2019-03-01T22:09:37.799Z,99.90
2019-03-01T22:12:07.493Z,99.90
2019-03-01T22:14:37.241Z,99.90
2019-03-01T22:17:06.910Z,99.90
2019-03-01T22:19:36.781Z,99.90
2019-03-01T22:22:07.388Z,99.90
2019-03-01T22:24:37.445Z,99.90
2019-03-01T22:27:07.204Z,99.90
2019-03-01T22:29:36.883Z,99.90
2019-03-01T22:32:07.430Z,99.90
2019-03-01T22:34:38.049Z,99.90
2019-03-01T22:37:07.803Z,99.90
2019-03-01T22:39:37.637Z,99.90
2019-03-01T22:42:07.480Z,99.90
2019-03-01T22:44:37.350Z,99.90
2019-03-01T22:47:07.017Z,99.90
2019-03-01T22:49:37.416Z,99.90
2019-03-01T22:52:07.073Z,99.90
2019-03-01T22:54:36.761Z,99.90
2019-03-01T22:57:06.456Z,99.90
2019-03-01T22:59:36.861Z,99.90
2019-03-01T23:02:09.324Z,99.90
2019-03-01T23:04:40.416Z,99.90
2019-03-01T23:07:10.236Z,99.90
2019-03-01T23:09:42.613Z,99.90
2019-03-01T23:12:12.181Z,99.90
2019-03-01T23:14:42.573Z,99.90
2019-03-01T23:17:12.356Z,99.90
2019-03-01T23:19:42.102Z,99.90
2019-03-01T23:22:15.315Z,99.90
2019-03-01T23:24:45.036Z,99.90
2019-03-01T23:27:14.708Z,99.90
2019-03-01T23:29:44.547Z,99.90
2019-03-01T23:32:15.588Z,99.90
2019-03-01T23:34:45.640Z,99.90
2019-03-01T23:37:15.416Z,99.90
2019-03-01T23:39:45.086Z,99.90
2019-03-01T23:42:17.429Z,99.90
2019-03-01T23:44:46.213Z,99.90
2019-03-01T23:47:15.953Z,99.90
2019-03-01T23:49:45.634Z,99.90
2019-03-01T23:52:15.404Z,99.90
2019-03-01T23:54:47.896Z,99.90
2019-03-01T23:57:19.165Z,99.90
2019-03-01T23:59:50.673Z,99.90
